sensor_id;sensor_type;location;lat;lon;timestamp;pressure;altitude;pressure_sealevel;temperature
74043;BMP280;62384;53.600;10.040;2022-09-09T00:04:35;100055.28;;;14.41
74043;BMP280;62384;53.600;10.040;2022-09-09T00:07:43;100090.94;;;14.77
74043;BMP280;62384;53.600;10.040;2022-09-09T00:15:14;100094.75;;;14.83
74043;BMP280;62384;53.600;10.040;2022-09-09T00:18:03;100092.44;;;14.81
74043;BMP280;62384;53.600;10.040;2022-09-09T00:23:14;100097.03;;;14.88
74043;BMP280;62384;53.600;10.040;2022-09-09T00:26:08;100098.53;;;14.92
74043;BMP280;62384;53.600;10.040;2022-09-09T00:28:39;100100.06;;;14.93
74043;BMP280;62384;53.600;10.040;2022-09-09T00:31:13;100100.41;;;14.95
74043;BMP280;62384;53.600;10.040;2022-09-09T00:33:40;100102.75;;;14.97
74043;BMP280;62384;53.600;10.040;2022-09-09T00:36:13;100097.72;;;14.95
74043;BMP280;62384;53.600;10.040;2022-09-09T00:38:49;100088.16;;;14.84
74043;BMP280;62384;53.600;10.040;2022-09-09T00:44:19;100098.88;;;14.98
74043;BMP280;62384;53.600;10.040;2022-09-09T00:46:59;100082.69;;;14.94
74043;BMP280;62384;53.600;10.040;2022-09-09T00:57:51;100088.13;;;14.91
74043;BMP280;62384;53.600;10.040;2022-09-09T01:00:42;100098.16;;;14.90
74043;BMP280;62384;53.600;10.040;2022-09-09T01:03:34;100094.66;;;14.93
74043;BMP280;62384;53.600;10.040;2022-09-09T01:06:10;100103.94;;;14.92
74043;BMP280;62384;53.600;10.040;2022-09-09T01:08:42;100099.31;;;14.89
74043;BMP280;62384;53.600;10.040;2022-09-09T01:11:20;100078.91;;;14.85
74043;BMP280;62384;53.600;10.040;2022-09-09T01:13:49;100093.56;;;14.87
74043;BMP280;62384;53.600;10.040;2022-09-09T01:16:17;100100.53;;;14.85
74043;BMP280;62384;53.600;10.040;2022-09-09T01:18:49;100087.81;;;14.82
74043;BMP280;62384;53.600;10.040;2022-09-09T01:21:34;100096.69;;;14.82
74043;BMP280;62384;53.600;10.040;2022-09-09T01:26:32;100097.47;;;14.79
74043;BMP280;62384;53.600;10.040;2022-09-09T01:28:58;100089.00;;;14.77
74043;BMP280;62384;53.600;10.040;2022-09-09T01:31:56;100093.97;;;14.82
74043;BMP280;62384;53.600;10.040;2022-09-09T01:34:25;100091.28;;;14.82
74043;BMP280;62384;53.600;10.040;2022-09-09T01:39:25;100100.16;;;14.79
74043;BMP280;62384;53.600;10.040;2022-09-09T01:41:52;100085.19;;;14.71
74043;BMP280;62384;53.600;10.040;2022-09-09T01:44:18;100089.00;;;14.74
74043;BMP280;62384;53.600;10.040;2022-09-09T01:46:44;100091.38;;;14.68
74043;BMP280;62384;53.600;10.040;2022-09-09T01:49:10;100094.88;;;14.65
74043;BMP280;62384;53.600;10.040;2022-09-09T01:51:37;100061.03;;;14.46
74043;BMP280;62384;53.600;10.040;2022-09-09T01:54:04;100087.56;;;14.62
74043;BMP280;62384;53.600;10.040;2022-09-09T02:01:49;100085.22;;;14.61
74043;BMP280;62384;53.600;10.040;2022-09-09T02:04:42;100085.63;;;14.59
74043;BMP280;62384;53.600;10.040;2022-09-09T02:07:38;100079.13;;;14.49
74043;BMP280;62384;53.600;10.040;2022-09-09T02:10:17;100084.53;;;14.53
74043;BMP280;62384;53.600;10.040;2022-09-09T02:12:47;100089.16;;;14.52
74043;BMP280;62384;53.600;10.040;2022-09-09T02:15:32;100084.53;;;14.53
74043;BMP280;62384;53.600;10.040;2022-09-09T02:17:58;100092.59;;;14.60
74043;BMP280;62384;53.600;10.040;2022-09-09T02:20:25;100089.13;;;14.56
74043;BMP280;62384;53.600;10.040;2022-09-09T02:22:52;100090.31;;;14.55
74043;BMP280;62384;53.600;10.040;2022-09-09T02:25:21;100096.88;;;14.50
74043;BMP280;62384;53.600;10.040;2022-09-09T02:27:49;100089.97;;;14.46
74043;BMP280;62384;53.600;10.040;2022-09-09T02:30:16;100088.00;;;14.50
74043;BMP280;62384;53.600;10.040;2022-09-09T02:32:43;100084.97;;;14.44
74043;BMP280;62384;53.600;10.040;2022-09-09T02:35:13;100088.81;;;14.43
74043;BMP280;62384;53.600;10.040;2022-09-09T02:37:40;100090.72;;;14.43
74043;BMP280;62384;53.600;10.040;2022-09-09T02:40:08;100086.91;;;14.40
74043;BMP280;62384;53.600;10.040;2022-09-09T02:42:39;100093.09;;;14.41
74043;BMP280;62384;53.600;10.040;2022-09-09T02:45:06;100056.59;;;14.15
74043;BMP280;62384;53.600;10.040;2022-09-09T02:47:36;100096.56;;;14.38
74043;BMP280;62384;53.600;10.040;2022-09-09T02:50:13;100098.84;;;14.43
74043;BMP280;62384;53.600;10.040;2022-09-09T02:53:01;100086.47;;;14.49
74043;BMP280;62384;53.600;10.040;2022-09-09T02:55:54;100084.97;;;14.48
74043;BMP280;62384;53.600;10.040;2022-09-09T02:58:22;100084.56;;;14.46
74043;BMP280;62384;53.600;10.040;2022-09-09T03:00:50;100086.88;;;14.44
74043;BMP280;62384;53.600;10.040;2022-09-09T03:03:17;100088.84;;;14.40
74043;BMP280;62384;53.600;10.040;2022-09-09T03:05:43;100093.88;;;14.38
74043;BMP280;62384;53.600;10.040;2022-09-09T03:08:10;100091.16;;;14.38
74043;BMP280;62384;53.600;10.040;2022-09-09T03:10:35;100083.47;;;14.33
74043;BMP280;62384;53.600;10.040;2022-09-09T03:13:03;100096.53;;;14.45
74043;BMP280;62384;53.600;10.040;2022-09-09T03:15:31;100090.78;;;14.36
74043;BMP280;62384;53.600;10.040;2022-09-09T03:17:57;100099.66;;;14.40
74043;BMP280;62384;53.600;10.040;2022-09-09T03:20:24;100101.97;;;14.38
74043;BMP280;62384;53.600;10.040;2022-09-09T03:22:51;100097.78;;;14.30
74043;BMP280;62384;53.600;10.040;2022-09-09T03:25:16;100092.78;;;14.25
74043;BMP280;62384;53.600;10.040;2022-09-09T03:27:41;100102.03;;;14.27
74043;BMP280;62384;53.600;10.040;2022-09-09T03:30:07;100100.47;;;14.26
74043;BMP280;62384;53.600;10.040;2022-09-09T03:32:33;100098.56;;;14.27
74043;BMP280;62384;53.600;10.040;2022-09-09T03:34:58;100090.47;;;14.23
74043;BMP280;62384;53.600;10.040;2022-09-09T03:37:23;100097.81;;;14.19
74043;BMP280;62384;53.600;10.040;2022-09-09T03:39:49;100098.22;;;14.18
74043;BMP280;62384;53.600;10.040;2022-09-09T03:42:15;100097.44;;;14.17
74043;BMP280;62384;53.600;10.040;2022-09-09T03:44:43;100102.47;;;14.15
74043;BMP280;62384;53.600;10.040;2022-09-09T03:47:11;100094.41;;;14.12
74043;BMP280;62384;53.600;10.040;2022-09-09T03:49:36;100104.41;;;14.15
74043;BMP280;62384;53.600;10.040;2022-09-09T03:52:02;100111.72;;;14.14
74043;BMP280;62384;53.600;10.040;2022-09-09T03:54:27;100102.50;;;14.12
74043;BMP280;62384;53.600;10.040;2022-09-09T03:56:52;100114.41;;;14.14
74043;BMP280;62384;53.600;10.040;2022-09-09T03:59:18;100108.25;;;14.17
74043;BMP280;62384;53.600;10.040;2022-09-09T04:01:43;100112.53;;;14.11
74043;BMP280;62384;53.600;10.040;2022-09-09T04:04:10;100114.44;;;14.11
74043;BMP280;62384;53.600;10.040;2022-09-09T04:06:37;100084.84;;;13.83
74043;BMP280;62384;53.600;10.040;2022-09-09T04:09:02;100118.72;;;14.01
74043;BMP280;62384;53.600;10.040;2022-09-09T04:11:28;100121.03;;;14.03
74043;BMP280;62384;53.600;10.040;2022-09-09T04:13:54;100121.75;;;14.07
74043;BMP280;62384;53.600;10.040;2022-09-09T04:16:19;100126.81;;;14.05
74043;BMP280;62384;53.600;10.040;2022-09-09T04:18:45;100126.44;;;14.03
74043;BMP280;62384;53.600;10.040;2022-09-09T04:21:11;100115.63;;;14.03
74043;BMP280;62384;53.600;10.040;2022-09-09T04:23:38;100125.25;;;14.04
74043;BMP280;62384;53.600;10.040;2022-09-09T04:26:03;100124.13;;;13.98
74043;BMP280;62384;53.600;10.040;2022-09-09T04:28:31;100134.94;;;13.94
74043;BMP280;62384;53.600;10.040;2022-09-09T04:30:57;100140.34;;;13.94
74043;BMP280;62384;53.600;10.040;2022-09-09T04:33:24;100136.88;;;13.94
74043;BMP280;62384;53.600;10.040;2022-09-09T04:35:52;100112.63;;;13.76
74043;BMP280;62384;53.600;10.040;2022-09-09T04:38:19;100134.56;;;13.89
74043;BMP280;62384;53.600;10.040;2022-09-09T04:40:47;100139.56;;;13.90
74043;BMP280;62384;53.600;10.040;2022-09-09T04:43:13;100141.09;;;13.91
74043;BMP280;62384;53.600;10.040;2022-09-09T04:45:39;100152.66;;;13.95
74043;BMP280;62384;53.600;10.040;2022-09-09T04:48:05;100136.47;;;13.95
74043;BMP280;62384;53.600;10.040;2022-09-09T04:50:31;100148.84;;;13.93
74043;BMP280;62384;53.600;10.040;2022-09-09T04:53:00;100145.72;;;13.91
74043;BMP280;62384;53.600;10.040;2022-09-09T04:55:25;100148.41;;;13.98
74043;BMP280;62384;53.600;10.040;2022-09-09T04:57:52;100156.91;;;13.96
74043;BMP280;62384;53.600;10.040;2022-09-09T05:00:17;100156.50;;;13.98
74043;BMP280;62384;53.600;10.040;2022-09-09T05:02:43;100163.47;;;13.99
74043;BMP280;62384;53.600;10.040;2022-09-09T05:05:09;100159.22;;;13.98
74043;BMP280;62384;53.600;10.040;2022-09-09T05:07:36;100160.75;;;14.02
74043;BMP280;62384;53.600;10.040;2022-09-09T05:10:02;100164.59;;;14.01
74043;BMP280;62384;53.600;10.040;2022-09-09T05:12:30;100163.44;;;14.02
74043;BMP280;62384;53.600;10.040;2022-09-09T05:14:56;100159.97;;;14.02
74043;BMP280;62384;53.600;10.040;2022-09-09T05:17:21;100160.38;;;14.00
74043;BMP280;62384;53.600;10.040;2022-09-09T05:19:47;100159.19;;;14.01
74043;BMP280;62384;53.600;10.040;2022-09-09T05:22:13;100161.53;;;14.03
74043;BMP280;62384;53.600;10.040;2022-09-09T05:24:38;100159.19;;;14.01
74043;BMP280;62384;53.600;10.040;2022-09-09T05:27:04;100165.75;;;14.04
74043;BMP280;62384;53.600;10.040;2022-09-09T05:29:31;100155.75;;;13.97
74043;BMP280;62384;53.600;10.040;2022-09-09T05:31:58;100164.94;;;14.07
74043;BMP280;62384;53.600;10.040;2022-09-09T05:34:23;100167.66;;;14.07
74043;BMP280;62384;53.600;10.040;2022-09-09T05:36:49;100174.97;;;14.10
74043;BMP280;62384;53.600;10.040;2022-09-09T05:39:14;100178.44;;;14.07
74043;BMP280;62384;53.600;10.040;2022-09-09T05:41:40;100173.47;;;14.09
74043;BMP280;62384;53.600;10.040;2022-09-09T05:44:05;100178.09;;;14.12
74043;BMP280;62384;53.600;10.040;2022-09-09T05:46:31;100173.03;;;14.14
74043;BMP280;62384;53.600;10.040;2022-09-09T05:48:56;100180.75;;;14.15
74043;BMP280;62384;53.600;10.040;2022-09-09T05:51:26;100193.06;;;14.23
74043;BMP280;62384;53.600;10.040;2022-09-09T05:53:56;100194.59;;;14.35
74043;BMP280;62384;53.600;10.040;2022-09-09T05:56:25;100196.13;;;14.36
74043;BMP280;62384;53.600;10.040;2022-09-09T05:58:51;100184.19;;;14.30
74043;BMP280;62384;53.600;10.040;2022-09-09T06:01:24;100189.94;;;14.39
74043;BMP280;62384;53.600;10.040;2022-09-09T06:03:51;100195.28;;;14.42
74043;BMP280;62384;53.600;10.040;2022-09-09T06:06:19;100193.03;;;14.41
74043;BMP280;62384;53.600;10.040;2022-09-09T06:08:51;100200.31;;;14.44
74043;BMP280;62384;53.600;10.040;2022-09-09T06:11:21;100201.44;;;14.57
74043;BMP280;62384;53.600;10.040;2022-09-09T06:13:48;100204.88;;;14.65
74043;BMP280;62384;53.600;10.040;2022-09-09T06:16:18;100216.75;;;14.78
74043;BMP280;62384;53.600;10.040;2022-09-09T06:18:44;100222.91;;;14.85
74043;BMP280;62384;53.600;10.040;2022-09-09T06:21:18;100224.84;;;14.88
74043;BMP280;62384;53.600;10.040;2022-09-09T06:23:44;100224.88;;;14.78
74043;BMP280;62384;53.600;10.040;2022-09-09T06:28:40;100236.47;;;14.82
74043;BMP280;62384;53.600;10.040;2022-09-09T06:31:09;100243.38;;;14.83
74043;BMP280;62384;53.600;10.040;2022-09-09T06:33:36;100244.16;;;14.80
74043;BMP280;62384;53.600;10.040;2022-09-09T06:36:04;100232.22;;;14.74
74043;BMP280;62384;53.600;10.040;2022-09-09T06:38:30;100237.25;;;14.75
74043;BMP280;62384;53.600;10.040;2022-09-09T06:40:58;100235.69;;;14.78
74043;BMP280;62384;53.600;10.040;2022-09-09T06:43:24;100243.03;;;14.77
74043;BMP280;62384;53.600;10.040;2022-09-09T06:46:17;100241.09;;;14.78
74043;BMP280;62384;53.600;10.040;2022-09-09T06:48:44;100228.00;;;14.69
74043;BMP280;62384;53.600;10.040;2022-09-09T06:51:16;100234.94;;;14.77
74043;BMP280;62384;53.600;10.040;2022-09-09T06:53:42;100224.91;;;14.71
74043;BMP280;62384;53.600;10.040;2022-09-09T06:56:29;100233.72;;;14.85
74043;BMP280;62384;53.600;10.040;2022-09-09T06:58:57;100239.47;;;14.91
74043;BMP280;62384;53.600;10.040;2022-09-09T07:01:28;100245.66;;;14.91
74043;BMP280;62384;53.600;10.040;2022-09-09T07:03:55;100250.22;;;15.01
74043;BMP280;62384;53.600;10.040;2022-09-09T07:06:23;100234.41;;;14.96
74043;BMP280;62384;53.600;10.040;2022-09-09T07:11:16;100253.59;;;15.19
74043;BMP280;62384;53.600;10.040;2022-09-09T07:13:44;100245.09;;;15.21
74043;BMP280;62384;53.600;10.040;2022-09-09T07:16:12;100268.56;;;15.35
74043;BMP280;62384;53.600;10.040;2022-09-09T07:18:39;100274.28;;;15.47
74043;BMP280;62384;53.600;10.040;2022-09-09T07:21:05;100269.19;;;15.53
74043;BMP280;62384;53.600;10.040;2022-09-09T07:23:32;100281.75;;;15.80
74043;BMP280;62384;53.600;10.040;2022-09-09T07:25:57;100302.25;;;15.78
74043;BMP280;62384;53.600;10.040;2022-09-09T07:28:23;100299.63;;;15.67
74043;BMP280;62384;53.600;10.040;2022-09-09T07:31:00;100300.81;;;15.63
74043;BMP280;62384;53.600;10.040;2022-09-09T07:33:31;100293.09;;;15.61
74043;BMP280;62384;53.600;10.040;2022-09-09T07:36:12;100284.25;;;15.57
74043;BMP280;62384;53.600;10.040;2022-09-09T07:38:39;100295.78;;;15.65
74043;BMP280;62384;53.600;10.040;2022-09-09T07:41:09;100295.41;;;15.66
74043;BMP280;62384;53.600;10.040;2022-09-09T07:43:37;100294.16;;;15.74
74043;BMP280;62384;53.600;10.040;2022-09-09T07:46:02;100319.59;;;15.84
74043;BMP280;62384;53.600;10.040;2022-09-09T07:48:28;100324.84;;;16.01
74043;BMP280;62384;53.600;10.040;2022-09-09T07:51:07;100329.75;;;16.17
74043;BMP280;62384;53.600;10.040;2022-09-09T07:53:32;100376.97;;;16.16
74043;BMP280;62384;53.600;10.040;2022-09-09T07:56:06;100373.44;;;16.23
74043;BMP280;62384;53.600;10.040;2022-09-09T07:58:32;100412.50;;;16.22
74043;BMP280;62384;53.600;10.040;2022-09-09T08:00:58;100376.88;;;16.30
74043;BMP280;62384;53.600;10.040;2022-09-09T08:03:23;100399.63;;;16.36
74043;BMP280;62384;53.600;10.040;2022-09-09T08:05:49;100383.81;;;16.28
74043;BMP280;62384;53.600;10.040;2022-09-09T08:08:14;100403.09;;;16.40
74043;BMP280;62384;53.600;10.040;2022-09-09T08:10:40;100425.44;;;16.48
74043;BMP280;62384;53.600;10.040;2022-09-09T08:13:05;100449.78;;;16.55
74043;BMP280;62384;53.600;10.040;2022-09-09T08:15:31;100421.91;;;16.54
74043;BMP280;62384;53.600;10.040;2022-09-09T08:17:57;100454.81;;;16.56
74043;BMP280;62384;53.600;10.040;2022-09-09T08:20:23;100463.63;;;16.64
74043;BMP280;62384;53.600;10.040;2022-09-09T08:22:48;100448.25;;;16.87
74043;BMP280;62384;53.600;10.040;2022-09-09T08:25:15;100465.56;;;17.00
74043;BMP280;62384;53.600;10.040;2022-09-09T08:27:42;100494.19;;;17.05
74043;BMP280;62384;53.600;10.040;2022-09-09T08:30:09;100503.81;;;17.13
74043;BMP280;62384;53.600;10.040;2022-09-09T08:32:35;100505.59;;;17.23
74043;BMP280;62384;53.600;10.040;2022-09-09T08:35:00;100529.78;;;17.44
74043;BMP280;62384;53.600;10.040;2022-09-09T08:37:25;100560.94;;;17.33
74043;BMP280;62384;53.600;10.040;2022-09-09T08:39:51;100591.72;;;17.53
74043;BMP280;62384;53.600;10.040;2022-09-09T08:42:27;100565.16;;;17.37
74043;BMP280;62384;53.600;10.040;2022-09-09T08:45:12;100559.84;;;17.27
74043;BMP280;62384;53.600;10.040;2022-09-09T08:48:04;100547.44;;;17.29
74043;BMP280;62384;53.600;10.040;2022-09-09T08:50:36;100511.09;;;17.20
74043;BMP280;62384;53.600;10.040;2022-09-09T08:53:24;100532.13;;;17.12
74043;BMP280;62384;53.600;10.040;2022-09-09T08:55:59;100522.00;;;17.13
74043;BMP280;62384;53.600;10.040;2022-09-09T08:58:31;100548.69;;;17.21
74043;BMP280;62384;53.600;10.040;2022-09-09T09:04:00;100581.16;;;17.28
74043;BMP280;62384;53.600;10.040;2022-09-09T09:11:51;100636.50;;;17.75
74043;BMP280;62384;53.600;10.040;2022-09-09T09:14:21;100602.78;;;17.99
74043;BMP280;62384;53.600;10.040;2022-09-09T09:17:04;100666.75;;;18.07
74043;BMP280;62384;53.600;10.040;2022-09-09T09:19:31;100665.31;;;18.26
74043;BMP280;62384;53.600;10.040;2022-09-09T09:24:52;100720.91;;;18.51
74043;BMP280;62384;53.600;10.040;2022-09-09T09:27:31;100714.75;;;18.47
74043;BMP280;62384;53.600;10.040;2022-09-09T09:29:58;100716.75;;;18.70
74043;BMP280;62384;53.600;10.040;2022-09-09T09:32:24;100720.75;;;19.12
74043;BMP280;62384;53.600;10.040;2022-09-09T09:34:54;100764.81;;;19.30
74043;BMP280;62384;53.600;10.040;2022-09-09T09:37:28;100754.25;;;19.09
74043;BMP280;62384;53.600;10.040;2022-09-09T09:39:54;100771.34;;;18.82
74043;BMP280;62384;53.600;10.040;2022-09-09T09:42:20;100773.34;;;19.05
74043;BMP280;62384;53.600;10.040;2022-09-09T09:44:46;100738.91;;;19.18
74043;BMP280;62384;53.600;10.040;2022-09-09T09:47:16;100757.94;;;19.22
74043;BMP280;62384;53.600;10.040;2022-09-09T09:49:53;100773.97;;;19.16
74043;BMP280;62384;53.600;10.040;2022-09-09T09:52:25;100804.81;;;19.06
74043;BMP280;62384;53.600;10.040;2022-09-09T09:54:52;100790.91;;;19.01
74043;BMP280;62384;53.600;10.040;2022-09-09T09:57:24;100799.56;;;18.92
74043;BMP280;62384;53.600;10.040;2022-09-09T10:00:22;100790.16;;;19.00
74043;BMP280;62384;53.600;10.040;2022-09-09T10:02:47;100821.56;;;19.31
74043;BMP280;62384;53.600;10.040;2022-09-09T10:07:43;100861.22;;;20.41
74043;BMP280;62384;53.600;10.040;2022-09-09T10:10:15;100854.66;;;20.58
74043;BMP280;62384;53.600;10.040;2022-09-09T10:12:50;100873.97;;;21.51
74043;BMP280;62384;53.600;10.040;2022-09-09T10:20:54;100907.22;;;23.14
74043;BMP280;62384;53.600;10.040;2022-09-09T10:26:32;100914.03;;;23.10
74043;BMP280;62384;53.600;10.040;2022-09-09T10:29:22;100894.56;;;22.29
74043;BMP280;62384;53.600;10.040;2022-09-09T10:32:09;100892.50;;;22.33
74043;BMP280;62384;53.600;10.040;2022-09-09T10:40:23;100888.22;;;21.58
74043;BMP280;62384;53.600;10.040;2022-09-09T10:42:58;100893.81;;;22.41
74043;BMP280;62384;53.600;10.040;2022-09-09T10:45:40;100886.84;;;22.65
74043;BMP280;62384;53.600;10.040;2022-09-09T10:48:19;100894.44;;;22.32
74043;BMP280;62384;53.600;10.040;2022-09-09T10:51:01;100902.38;;;23.31
74043;BMP280;62384;53.600;10.040;2022-09-09T10:56:18;100896.75;;;25.88
74043;BMP280;62384;53.600;10.040;2022-09-09T10:58:53;100893.94;;;26.15
74043;BMP280;62384;53.600;10.040;2022-09-09T11:01:24;100893.63;;;26.22
74043;BMP280;62384;53.600;10.040;2022-09-09T11:03:56;100899.81;;;25.90
74043;BMP280;62384;53.600;10.040;2022-09-09T11:06:29;100891.31;;;24.94
74043;BMP280;62384;53.600;10.040;2022-09-09T11:08:59;100890.41;;;24.58
74043;BMP280;62384;53.600;10.040;2022-09-09T11:11:43;100895.34;;;23.76
74043;BMP280;62384;53.600;10.040;2022-09-09T11:16:58;100883.41;;;22.36
74043;BMP280;62384;53.600;10.040;2022-09-09T11:19:35;100880.78;;;22.32
74043;BMP280;62384;53.600;10.040;2022-09-09T11:22:06;100860.84;;;21.91
74043;BMP280;62384;53.600;10.040;2022-09-09T11:24:42;100882.94;;;21.96
74043;BMP280;62384;53.600;10.040;2022-09-09T11:27:15;100880.78;;;21.59
74043;BMP280;62384;53.600;10.040;2022-09-09T11:29:44;100883.34;;;21.66
74043;BMP280;62384;53.600;10.040;2022-09-09T11:41:01;100879.16;;;21.77
74043;BMP280;62384;53.600;10.040;2022-09-09T11:43:34;100874.19;;;21.56
74043;BMP280;62384;53.600;10.040;2022-09-09T11:46:04;100868.00;;;21.40
74043;BMP280;62384;53.600;10.040;2022-09-09T11:48:40;100878.28;;;21.32
74043;BMP280;62384;53.600;10.040;2022-09-09T11:53:53;100868.75;;;21.08
74043;BMP280;62384;53.600;10.040;2022-09-09T11:56:43;100871.03;;;21.10
74043;BMP280;62384;53.600;10.040;2022-09-09T11:59:30;100846.75;;;20.79
74043;BMP280;62384;53.600;10.040;2022-09-09T12:01:57;100878.34;;;20.97
74043;BMP280;62384;53.600;10.040;2022-09-09T12:04:43;100877.72;;;21.09
74043;BMP280;62384;53.600;10.040;2022-09-09T12:14:54;100885.06;;;22.05
74043;BMP280;62384;53.600;10.040;2022-09-09T12:17:24;100879.50;;;21.63
74043;BMP280;62384;53.600;10.040;2022-09-09T12:25:29;100836.25;;;20.62
74043;BMP280;62384;53.600;10.040;2022-09-09T12:31:20;100873.59;;;20.65
74043;BMP280;62384;53.600;10.040;2022-09-09T12:33:48;100854.50;;;20.65
74043;BMP280;62384;53.600;10.040;2022-09-09T12:36:16;100833.03;;;20.47
74043;BMP280;62384;53.600;10.040;2022-09-09T12:38:44;100804.34;;;20.23
74043;BMP280;62384;53.600;10.040;2022-09-09T12:41:20;100799.09;;;20.13
74043;BMP280;62384;53.600;10.040;2022-09-09T12:43:46;100782.03;;;20.09
74043;BMP280;62384;53.600;10.040;2022-09-09T12:46:36;100760.34;;;20.02
74043;BMP280;62384;53.600;10.040;2022-09-09T12:49:04;100741.53;;;20.07
74043;BMP280;62384;53.600;10.040;2022-09-09T12:51:32;100704.16;;;20.08
74043;BMP280;62384;53.600;10.040;2022-09-09T12:53:59;100674.19;;;20.08
74043;BMP280;62384;53.600;10.040;2022-09-09T12:56:30;100712.41;;;20.04
74043;BMP280;62384;53.600;10.040;2022-09-09T12:58:57;100737.56;;;19.92
74043;BMP280;62384;53.600;10.040;2022-09-09T13:01:30;100760.06;;;19.76
74043;BMP280;62384;53.600;10.040;2022-09-09T13:03:56;100739.72;;;19.61
74043;BMP280;62384;53.600;10.040;2022-09-09T13:06:27;100730.50;;;19.55
74043;BMP280;62384;53.600;10.040;2022-09-09T13:08:54;100750.06;;;19.50
74043;BMP280;62384;53.600;10.040;2022-09-09T13:11:26;100749.63;;;19.52
74043;BMP280;62384;53.600;10.040;2022-09-09T13:13:55;100735.78;;;19.43
74043;BMP280;62384;53.600;10.040;2022-09-09T13:16:33;100738.97;;;19.38
74043;BMP280;62384;53.600;10.040;2022-09-09T13:19:08;100730.56;;;19.29
74043;BMP280;62384;53.600;10.040;2022-09-09T13:21:38;100708.09;;;19.25
74043;BMP280;62384;53.600;10.040;2022-09-09T13:24:28;100715.25;;;19.15
74043;BMP280;62384;53.600;10.040;2022-09-09T13:27:03;100735.50;;;19.14
74043;BMP280;62384;53.600;10.040;2022-09-09T13:29:31;100740.28;;;19.07
74043;BMP280;62384;53.600;10.040;2022-09-09T13:32:16;100715.13;;;18.99
74043;BMP280;62384;53.600;10.040;2022-09-09T13:34:51;100747.44;;;18.97
74043;BMP280;62384;53.600;10.040;2022-09-09T13:37:33;100731.09;;;18.97
74043;BMP280;62384;53.600;10.040;2022-09-09T13:39:59;100752.53;;;18.92
74043;BMP280;62384;53.600;10.040;2022-09-09T13:42:29;100752.22;;;18.90
74043;BMP280;62384;53.600;10.040;2022-09-09T13:44:57;100733.75;;;18.77
74043;BMP280;62384;53.600;10.040;2022-09-09T13:47:32;100701.66;;;18.65
74043;BMP280;62384;53.600;10.040;2022-09-09T13:49:58;100657.88;;;18.56
74043;BMP280;62384;53.600;10.040;2022-09-09T13:52:24;100632.47;;;18.43
74043;BMP280;62384;53.600;10.040;2022-09-09T13:54:52;100650.66;;;18.20
74043;BMP280;62384;53.600;10.040;2022-09-09T13:57:23;100649.63;;;18.10
74043;BMP280;62384;53.600;10.040;2022-09-09T13:59:51;100617.53;;;18.02
74043;BMP280;62384;53.600;10.040;2022-09-09T14:02:19;100599.84;;;17.86
74043;BMP280;62384;53.600;10.040;2022-09-09T14:04:46;100582.84;;;17.82
74043;BMP280;62384;53.600;10.040;2022-09-09T14:07:14;100554.31;;;17.67
74043;BMP280;62384;53.600;10.040;2022-09-09T14:09:40;100543.06;;;17.69
74043;BMP280;62384;53.600;10.040;2022-09-09T14:12:11;100525.66;;;17.63
74043;BMP280;62384;53.600;10.040;2022-09-09T14:14:38;100508.22;;;17.64
74043;BMP280;62384;53.600;10.040;2022-09-09T14:17:04;100470.66;;;17.59
74043;BMP280;62384;53.600;10.040;2022-09-09T14:19:35;100444.09;;;17.43
74043;BMP280;62384;53.600;10.040;2022-09-09T14:22:04;100481.53;;;17.59
74043;BMP280;62384;53.600;10.040;2022-09-09T14:24:29;100501.66;;;17.61
74043;BMP280;62384;53.600;10.040;2022-09-09T14:26:55;100499.75;;;17.58
74043;BMP280;62384;53.600;10.040;2022-09-09T14:29:20;100485.78;;;17.60
74043;BMP280;62384;53.600;10.040;2022-09-09T14:31:45;100474.94;;;17.56
74043;BMP280;62384;53.600;10.040;2022-09-09T14:34:11;100489.63;;;17.62
74043;BMP280;62384;53.600;10.040;2022-09-09T14:36:37;100493.09;;;17.63
74043;BMP280;62384;53.600;10.040;2022-09-09T14:39:04;100479.25;;;17.54
74043;BMP280;62384;53.600;10.040;2022-09-09T14:41:30;100527.75;;;17.52
74043;BMP280;62384;53.600;10.040;2022-09-09T14:43:55;100516.16;;;17.51
74043;BMP280;62384;53.600;10.040;2022-09-09T14:46:21;100532.50;;;17.44
74043;BMP280;62384;53.600;10.040;2022-09-09T14:48:47;100586.84;;;17.41
74043;BMP280;62384;53.600;10.040;2022-09-09T14:51:26;100634.97;;;17.33
74043;BMP280;62384;53.600;10.040;2022-09-09T14:53:57;100672.31;;;17.26
74043;BMP280;62384;53.600;10.040;2022-09-09T14:56:25;100665.75;;;17.20
74043;BMP280;62384;53.600;10.040;2022-09-09T14:58:55;100628.41;;;16.90
74043;BMP280;62384;53.600;10.040;2022-09-09T15:01:21;100611.66;;;16.98
74043;BMP280;62384;53.600;10.040;2022-09-09T15:04:00;100592.66;;;17.02
74043;BMP280;62384;53.600;10.040;2022-09-09T15:06:31;100567.06;;;17.03
74043;BMP280;62384;53.600;10.040;2022-09-09T15:08:58;100553.88;;;17.05
74043;BMP280;62384;53.600;10.040;2022-09-09T15:11:26;100535.28;;;17.03
74043;BMP280;62384;53.600;10.040;2022-09-09T15:13:53;100499.63;;;17.05
74043;BMP280;62384;53.600;10.040;2022-09-09T15:16:20;100472.00;;;17.14
74043;BMP280;62384;53.600;10.040;2022-09-09T15:18:46;100487.13;;;17.15
74043;BMP280;62384;53.600;10.040;2022-09-09T15:21:17;100494.53;;;17.07
74043;BMP280;62384;53.600;10.040;2022-09-09T15:23:44;100498.03;;;17.08
74043;BMP280;62384;53.600;10.040;2022-09-09T15:26:10;100515.16;;;17.01
74043;BMP280;62384;53.600;10.040;2022-09-09T15:28:37;100500.00;;;17.03
74043;BMP280;62384;53.600;10.040;2022-09-09T15:31:20;100529.53;;;16.98
74043;BMP280;62384;53.600;10.040;2022-09-09T15:34:15;100533.28;;;17.08
74043;BMP280;62384;53.600;10.040;2022-09-09T15:36:42;100487.53;;;17.13
74043;BMP280;62384;53.600;10.040;2022-09-09T15:39:13;100479.44;;;17.10
74043;BMP280;62384;53.600;10.040;2022-09-09T15:41:41;100486.38;;;17.11